Terminal Aerodrome Forecast
Issued by NWS Mt. Holly, NJ

Home | Current Version | Previous Version | Text Only | Print | Product List | Glossary On
Versions: 1 2 3 4 5 6 7 8 9 10 11 12 13 14 15 16 17
000
FTAK31 PANC 230537
TAFABE
TAF
PABE 230537Z 2306/2406 32008KT P6SM OVC150
     FM231600 17008G15KT P6SM -SHRA SCT035 OVC050
     FM240300 21011KT P6SM SCT040 SCT120=

USA.gov is the U.S. government's official web portal to all federal, state and local government web resources and services.